SWA1487 KDAL-KSAT
Flight info
| Callsign | SWA1487 |
|---|---|
| Flight time | 0h 43m |
| Altitude | 30000 |
| Route | CURLO6 WINDU QERVO3 |
| Aircraft | B738/M-SDE2E3FGHIRWXY/LB1 |
Departure
| Time | 2026-04-26 20:48 |
|---|---|
| Airport | Dallas Love Field (KDAL) |
Arrival
| Time | 2026-04-26 21:32 |
|---|---|
| Airport | San Antonio International Airport (KSAT) |
| Time | Latitude | Longitude | Altitude | Speed | Heading |
|---|---|---|---|---|---|
| 2026-04-26 20:21 | 32.84645 | -96.84797 | 483 ft | 0 kts | 181° |
| 2026-04-26 20:37 | 32.84649 | -96.84797 | 475 ft | 2 kts | 181° |
| 2026-04-26 20:38 | 32.84667 | -96.84797 | 477 ft | 3 kts | 176° |
| 2026-04-26 20:38 | 32.84683 | -96.84802 | 480 ft | 3 kts | 131° |
| 2026-04-26 20:38 | 32.84693 | -96.84819 | 481 ft | 3 kts | 121° |
| 2026-04-26 20:38 | 32.84701 | -96.84834 | 480 ft | 1 kts | 121° |
| 2026-04-26 20:39 | 32.84701 | -96.84835 | 480 ft | 2 kts | 121° |
| 2026-04-26 20:42 | 32.84698 | -96.84825 | 480 ft | 4 kts | 104° |
| 2026-04-26 20:42 | 32.84722 | -96.84805 | 480 ft | 7 kts | 351° |
| 2026-04-26 20:42 | 32.84775 | -96.84866 | 483 ft | 15 kts | 317° |
| 2026-04-26 20:43 | 32.84844 | -96.84976 | 481 ft | 21 kts | 278° |
| 2026-04-26 20:43 | 32.84847 | -96.85181 | 477 ft | 25 kts | 270° |
| 2026-04-26 20:43 | 32.84848 | -96.85283 | 483 ft | 5 kts | 252° |
| 2026-04-26 20:43 | 32.84805 | -96.85322 | 483 ft | 14 kts | 227° |
| 2026-04-26 20:44 | 32.84790 | -96.85467 | 483 ft | 20 kts | 267° |
| 2026-04-26 20:44 | 32.84767 | -96.85630 | 483 ft | 20 kts | 257° |
| 2026-04-26 20:44 | 32.84799 | -96.85774 | 480 ft | 19 kts | 316° |
| 2026-04-26 20:44 | 32.84893 | -96.85883 | 483 ft | 19 kts | 315° |
| 2026-04-26 20:45 | 32.84993 | -96.86002 | 481 ft | 21 kts | 315° |
| 2026-04-26 20:45 | 32.85097 | -96.86121 | 482 ft | 20 kts | 316° |
| 2026-04-26 20:45 | 32.85185 | -96.86230 | 479 ft | 12 kts | 292° |
| 2026-04-26 20:45 | 32.85186 | -96.86241 | 481 ft | 0 kts | 276° |
| 2026-04-26 20:46 | 32.85186 | -96.86242 | 481 ft | 1 kts | 276° |
| 2026-04-26 20:46 | 32.85167 | -96.86285 | 479 ft | 10 kts | 230° |
| 2026-04-26 20:46 | 32.85102 | -96.86307 | 477 ft | 10 kts | 155° |
| 2026-04-26 20:47 | 32.85071 | -96.86275 | 479 ft | 0 kts | 134° |
| 2026-04-26 20:47 | 32.85070 | -96.86274 | 479 ft | 2 kts | 134° |
| 2026-04-26 20:47 | 32.85053 | -96.86253 | 479 ft | 0 kts | 135° |
| 2026-04-26 20:47 | 32.85046 | -96.86244 | 478 ft | 7 kts | 135° |
| 2026-04-26 20:48 | 32.84844 | -96.86011 | 483 ft | 81 kts | 136° |
| 2026-04-26 20:48 | 32.84254 | -96.85333 | 483 ft | 148 kts | 136° |
| 2026-04-26 20:48 | 32.83474 | -96.84394 | 830 ft | 166 kts | 137° |
| 2026-04-26 20:48 | 32.82655 | -96.83382 | 1682 ft | 173 kts | 136° |
| 2026-04-26 20:49 | 32.81790 | -96.82297 | 2329 ft | 190 kts | 138° |
| 2026-04-26 20:49 | 32.80807 | -96.81092 | 2680 ft | 211 kts | 137° |
| 2026-04-26 20:49 | 32.79776 | -96.79823 | 3263 ft | 217 kts | 137° |
| 2026-04-26 20:49 | 32.78713 | -96.78506 | 3883 ft | 226 kts | 138° |
| 2026-04-26 20:50 | 32.77437 | -96.77283 | 4137 ft | 248 kts | 162° |
| 2026-04-26 20:50 | 32.75716 | -96.77166 | 4760 ft | 256 kts | 195° |
| 2026-04-26 20:50 | 32.74056 | -96.77930 | 5645 ft | 257 kts | 204° |
| 2026-04-26 20:50 | 32.72448 | -96.78905 | 6438 ft | 264 kts | 207° |
| 2026-04-26 20:51 | 32.71375 | -96.79585 | 6981 ft | 263 kts | 208° |
| 2026-04-26 20:51 | 32.69742 | -96.80627 | 7713 ft | 268 kts | 209° |
| 2026-04-26 20:51 | 32.68097 | -96.81669 | 8527 ft | 269 kts | 209° |
| 2026-04-26 20:51 | 32.66435 | -96.82713 | 9313 ft | 271 kts | 210° |
| 2026-04-26 20:52 | 32.64756 | -96.83759 | 10064 ft | 274 kts | 210° |
| 2026-04-26 20:52 | 32.63055 | -96.84813 | 10759 ft | 278 kts | 211° |
| 2026-04-26 20:52 | 32.61329 | -96.85878 | 11439 ft | 281 kts | 211° |
| 2026-04-26 20:52 | 32.59579 | -96.86955 | 12113 ft | 286 kts | 211° |
| 2026-04-26 20:53 | 32.57800 | -96.88047 | 12797 ft | 290 kts | 212° |
| 2026-04-26 20:53 | 32.55998 | -96.89151 | 13499 ft | 294 kts | 212° |
| 2026-04-26 20:53 | 32.54172 | -96.90268 | 14156 ft | 297 kts | 212° |
| 2026-04-26 20:53 | 32.52332 | -96.91392 | 14855 ft | 298 kts | 212° |
| 2026-04-26 20:54 | 32.50485 | -96.92519 | 15574 ft | 299 kts | 213° |
| 2026-04-26 20:54 | 32.48630 | -96.93651 | 16293 ft | 301 kts | 213° |
| 2026-04-26 20:54 | 32.46761 | -96.94791 | 17048 ft | 303 kts | 213° |
| 2026-04-26 20:54 | 32.44882 | -96.95937 | 17795 ft | 305 kts | 213° |
| 2026-04-26 20:55 | 32.42989 | -96.97090 | 18467 ft | 307 kts | 213° |
| 2026-04-26 20:55 | 32.41073 | -96.98258 | 18989 ft | 312 kts | 213° |
| 2026-04-26 20:55 | 32.39129 | -96.99443 | 19537 ft | 316 kts | 213° |
| 2026-04-26 20:55 | 32.37163 | -97.00638 | 20091 ft | 319 kts | 213° |
| 2026-04-26 20:56 | 32.35180 | -97.01845 | 20631 ft | 323 kts | 213° |
| 2026-04-26 20:56 | 32.33172 | -97.03065 | 21160 ft | 326 kts | 213° |
| 2026-04-26 20:56 | 32.31141 | -97.04299 | 21687 ft | 330 kts | 213° |
| 2026-04-26 20:56 | 32.28995 | -97.05353 | 22203 ft | 340 kts | 204° |
| 2026-04-26 20:57 | 32.26657 | -97.05972 | 22713 ft | 350 kts | 193° |
| 2026-04-26 20:57 | 32.24194 | -97.06159 | 23206 ft | 358 kts | 189° |
| 2026-04-26 20:57 | 32.21682 | -97.06236 | 23656 ft | 363 kts | 188° |
| 2026-04-26 20:57 | 32.19188 | -97.06283 | 24132 ft | 364 kts | 188° |
| 2026-04-26 20:58 | 32.16623 | -97.06331 | 24614 ft | 365 kts | 188° |
| 2026-04-26 20:58 | 32.14114 | -97.06385 | 25079 ft | 366 kts | 189° |
| 2026-04-26 20:58 | 32.11557 | -97.06450 | 25430 ft | 371 kts | 189° |
| 2026-04-26 20:58 | 32.08922 | -97.06531 | 25480 ft | 385 kts | 189° |
| 2026-04-26 20:59 | 32.06198 | -97.06618 | 25568 ft | 398 kts | 189° |
| 2026-04-26 20:59 | 32.03386 | -97.06709 | 25645 ft | 410 kts | 189° |
| 2026-04-26 20:59 | 32.00494 | -97.06801 | 25719 ft | 422 kts | 189° |
| 2026-04-26 20:59 | 31.97523 | -97.06893 | 25821 ft | 431 kts | 188° |
| 2026-04-26 21:00 | 31.94522 | -97.06982 | 26225 ft | 432 kts | 188° |
| 2026-04-26 21:00 | 31.91521 | -97.07067 | 26704 ft | 431 kts | 189° |
| 2026-04-26 21:00 | 31.88523 | -97.07155 | 27104 ft | 432 kts | 189° |
| 2026-04-26 21:00 | 31.85512 | -97.07247 | 27441 ft | 434 kts | 189° |
| 2026-04-26 21:01 | 31.82485 | -97.07341 | 27759 ft | 437 kts | 189° |
| 2026-04-26 21:01 | 31.79437 | -97.07436 | 28096 ft | 439 kts | 189° |
| 2026-04-26 21:01 | 31.76378 | -97.07531 | 28438 ft | 440 kts | 189° |
| 2026-04-26 21:01 | 31.73305 | -97.07627 | 28746 ft | 443 kts | 189° |
| 2026-04-26 21:02 | 31.70218 | -97.07723 | 29074 ft | 445 kts | 189° |
| 2026-04-26 21:02 | 31.67115 | -97.07819 | 29392 ft | 446 kts | 189° |
| 2026-04-26 21:02 | 31.64010 | -97.07914 | 29707 ft | 448 kts | 189° |
| 2026-04-26 21:02 | 31.60880 | -97.08012 | 29831 ft | 452 kts | 189° |
| 2026-04-26 21:03 | 31.57759 | -97.08109 | 29831 ft | 455 kts | 189° |
| 2026-04-26 21:03 | 31.51511 | -97.08683 | 29815 ft | 438 kts | 204° |
| 2026-04-26 21:04 | 31.45791 | -97.10973 | 29837 ft | 434 kts | 207° |
| 2026-04-26 21:04 | 31.40079 | -97.13323 | 29834 ft | 436 kts | 206° |
| 2026-04-26 21:05 | 31.34318 | -97.15608 | 29836 ft | 438 kts | 206° |
| 2026-04-26 21:05 | 31.28540 | -97.17866 | 29836 ft | 438 kts | 206° |
| 2026-04-26 21:06 | 31.22756 | -97.20124 | 29841 ft | 438 kts | 206° |
| 2026-04-26 21:06 | 31.16972 | -97.22382 | 29835 ft | 438 kts | 206° |
| 2026-04-26 21:07 | 31.11192 | -97.24633 | 29832 ft | 437 kts | 206° |
| 2026-04-26 21:07 | 31.05433 | -97.26874 | 29832 ft | 435 kts | 206° |
| 2026-04-26 21:08 | 30.99696 | -97.29105 | 29832 ft | 434 kts | 206° |
| 2026-04-26 21:08 | 30.93984 | -97.31324 | 29834 ft | 432 kts | 206° |
| 2026-04-26 21:09 | 30.88292 | -97.33532 | 29838 ft | 429 kts | 206° |
| 2026-04-26 21:09 | 30.82690 | -97.35698 | 29828 ft | 420 kts | 206° |
| 2026-04-26 21:10 | 30.77141 | -97.37849 | 29836 ft | 421 kts | 206° |
| 2026-04-26 21:10 | 30.74356 | -97.38928 | 29432 ft | 421 kts | 206° |
| 2026-04-26 21:10 | 30.71596 | -97.39993 | 28965 ft | 415 kts | 206° |
| 2026-04-26 21:10 | 30.68910 | -97.41027 | 28524 ft | 410 kts | 206° |
| 2026-04-26 21:11 | 30.66210 | -97.42068 | 28023 ft | 407 kts | 205° |
| 2026-04-26 21:11 | 30.63536 | -97.43099 | 27545 ft | 403 kts | 205° |
| 2026-04-26 21:11 | 30.60888 | -97.44121 | 27072 ft | 400 kts | 205° |
| 2026-04-26 21:11 | 30.58249 | -97.45139 | 26588 ft | 397 kts | 205° |
| 2026-04-26 21:12 | 30.55634 | -97.46147 | 26118 ft | 395 kts | 205° |
| 2026-04-26 21:12 | 30.53032 | -97.47149 | 25655 ft | 393 kts | 205° |
| 2026-04-26 21:12 | 30.50442 | -97.48147 | 25180 ft | 391 kts | 205° |
| 2026-04-26 21:12 | 30.47894 | -97.49127 | 24712 ft | 391 kts | 205° |
| 2026-04-26 21:13 | 30.45316 | -97.50119 | 24242 ft | 390 kts | 204° |
| 2026-04-26 21:13 | 30.42745 | -97.51107 | 23772 ft | 390 kts | 204° |
| 2026-04-26 21:13 | 30.40171 | -97.52095 | 23282 ft | 389 kts | 204° |
| 2026-04-26 21:13 | 30.37616 | -97.53118 | 22744 ft | 386 kts | 208° |
| 2026-04-26 21:14 | 30.35241 | -97.54541 | 22057 ft | 383 kts | 216° |
| 2026-04-26 21:14 | 30.32974 | -97.56131 | 21583 ft | 380 kts | 217° |
| 2026-04-26 21:14 | 30.30737 | -97.57748 | 21108 ft | 377 kts | 217° |
| 2026-04-26 21:14 | 30.28519 | -97.59347 | 20656 ft | 375 kts | 216° |
| 2026-04-26 21:15 | 30.26304 | -97.60923 | 20220 ft | 372 kts | 216° |
| 2026-04-26 21:15 | 30.24098 | -97.62475 | 19787 ft | 370 kts | 215° |
| 2026-04-26 21:15 | 30.21900 | -97.64008 | 19352 ft | 368 kts | 215° |
| 2026-04-26 21:15 | 30.19709 | -97.65527 | 18935 ft | 366 kts | 215° |
| 2026-04-26 21:16 | 30.17523 | -97.67039 | 18491 ft | 366 kts | 214° |
| 2026-04-26 21:16 | 30.15341 | -97.68546 | 18055 ft | 365 kts | 214° |
| 2026-04-26 21:16 | 30.13164 | -97.70048 | 17557 ft | 364 kts | 214° |
| 2026-04-26 21:16 | 30.10995 | -97.71543 | 17112 ft | 362 kts | 214° |
| 2026-04-26 21:17 | 30.08841 | -97.73026 | 16794 ft | 357 kts | 214° |
| 2026-04-26 21:17 | 30.06716 | -97.74488 | 16383 ft | 355 kts | 214° |
| 2026-04-26 21:17 | 30.04631 | -97.75923 | 15967 ft | 353 kts | 214° |
| 2026-04-26 21:17 | 30.02530 | -97.77369 | 15580 ft | 351 kts | 214° |
| 2026-04-26 21:18 | 30.00441 | -97.78806 | 15165 ft | 348 kts | 214° |
| 2026-04-26 21:18 | 29.98369 | -97.80231 | 14770 ft | 346 kts | 214° |
| 2026-04-26 21:18 | 29.96309 | -97.81647 | 14371 ft | 344 kts | 214° |
| 2026-04-26 21:18 | 29.94257 | -97.83056 | 13954 ft | 343 kts | 214° |
| 2026-04-26 21:19 | 29.92206 | -97.84463 | 13505 ft | 343 kts | 214° |
| 2026-04-26 21:19 | 29.90337 | -97.86118 | 13036 ft | 337 kts | 230° |
| 2026-04-26 21:19 | 29.89035 | -97.88297 | 12743 ft | 327 kts | 246° |
| 2026-04-26 21:19 | 29.88199 | -97.90709 | 12443 ft | 322 kts | 250° |
| 2026-04-26 21:20 | 29.87440 | -97.93125 | 12149 ft | 320 kts | 250° |
| 2026-04-26 21:20 | 29.86678 | -97.95536 | 11856 ft | 320 kts | 250° |
| 2026-04-26 21:20 | 29.85896 | -97.97933 | 11566 ft | 320 kts | 249° |
| 2026-04-26 21:20 | 29.85102 | -98.00316 | 11271 ft | 317 kts | 249° |
| 2026-04-26 21:21 | 29.84314 | -98.02667 | 10965 ft | 312 kts | 249° |
| 2026-04-26 21:21 | 29.83538 | -98.04988 | 10683 ft | 308 kts | 248° |
| 2026-04-26 21:21 | 29.82776 | -98.07277 | 10405 ft | 305 kts | 248° |
| 2026-04-26 21:21 | 29.82023 | -98.09539 | 10136 ft | 301 kts | 248° |
| 2026-04-26 21:22 | 29.81279 | -98.11773 | 9938 ft | 295 kts | 248° |
| 2026-04-26 21:22 | 29.80562 | -98.13926 | 9944 ft | 282 kts | 248° |
| 2026-04-26 21:22 | 29.79872 | -98.15996 | 9864 ft | 273 kts | 248° |
| 2026-04-26 21:23 | 29.78530 | -98.20028 | 9321 ft | 269 kts | 248° |
| 2026-04-26 21:23 | 29.77859 | -98.22044 | 9028 ft | 269 kts | 248° |
| 2026-04-26 21:23 | 29.77191 | -98.24047 | 8731 ft | 268 kts | 248° |
| 2026-04-26 21:23 | 29.76525 | -98.26046 | 8460 ft | 267 kts | 247° |
| 2026-04-26 21:24 | 29.75861 | -98.28038 | 8224 ft | 266 kts | 248° |
| 2026-04-26 21:24 | 29.75204 | -98.30007 | 7993 ft | 261 kts | 248° |
| 2026-04-26 21:24 | 29.74551 | -98.31959 | 7568 ft | 262 kts | 247° |
| 2026-04-26 21:24 | 29.73896 | -98.33914 | 7223 ft | 261 kts | 247° |
| 2026-04-26 21:25 | 29.73250 | -98.35839 | 6975 ft | 262 kts | 247° |
| 2026-04-26 21:25 | 29.72603 | -98.37819 | 6712 ft | 266 kts | 248° |
| 2026-04-26 21:25 | 29.71956 | -98.39827 | 6463 ft | 269 kts | 248° |
| 2026-04-26 21:25 | 29.71298 | -98.41866 | 6161 ft | 273 kts | 248° |
| 2026-04-26 21:26 | 29.70900 | -98.43985 | 5993 ft | 269 kts | 268° |
| 2026-04-26 21:26 | 29.70967 | -98.46089 | 5982 ft | 259 kts | 270° |
| 2026-04-26 21:26 | 29.71051 | -98.48109 | 5966 ft | 247 kts | 270° |
| 2026-04-26 21:26 | 29.71123 | -98.50033 | 5951 ft | 235 kts | 270° |
| 2026-04-26 21:27 | 29.71186 | -98.51872 | 5905 ft | 223 kts | 269° |
| 2026-04-26 21:27 | 29.71131 | -98.53580 | 5772 ft | 208 kts | 253° |
| 2026-04-26 21:27 | 29.70645 | -98.55120 | 5453 ft | 203 kts | 237° |
| 2026-04-26 21:27 | 29.69670 | -98.56266 | 5145 ft | 198 kts | 214° |
| 2026-04-26 21:28 | 29.68547 | -98.57193 | 4755 ft | 200 kts | 214° |
| 2026-04-26 21:28 | 29.67408 | -98.58118 | 4435 ft | 201 kts | 213° |
| 2026-04-26 21:28 | 29.66293 | -98.59106 | 4081 ft | 204 kts | 217° |
| 2026-04-26 21:28 | 29.65172 | -98.60079 | 3739 ft | 200 kts | 201° |
| 2026-04-26 21:29 | 29.63829 | -98.60186 | 3373 ft | 197 kts | 159° |
| 2026-04-26 21:29 | 29.62782 | -98.59251 | 3224 ft | 191 kts | 137° |
| 2026-04-26 21:29 | 29.61793 | -98.58195 | 2987 ft | 194 kts | 137° |
| 2026-04-26 21:29 | 29.60845 | -98.57055 | 2731 ft | 198 kts | 134° |
| 2026-04-26 21:30 | 29.60188 | -98.56208 | 2535 ft | 192 kts | 133° |
| 2026-04-26 21:30 | 29.59334 | -98.55097 | 2294 ft | 183 kts | 132° |
| 2026-04-26 21:30 | 29.58506 | -98.54028 | 2088 ft | 170 kts | 133° |
| 2026-04-26 21:30 | 29.58002 | -98.53377 | 1973 ft | 163 kts | 134° |
| 2026-04-26 21:31 | 29.56997 | -98.52073 | 1747 ft | 160 kts | 134° |
| 2026-04-26 21:31 | 29.56266 | -98.51135 | 1469 ft | 157 kts | 130° |
| 2026-04-26 21:31 | 29.55551 | -98.50191 | 1218 ft | 156 kts | 133° |
| 2026-04-26 21:31 | 29.54829 | -98.49265 | 1012 ft | 156 kts | 129° |
| 2026-04-26 21:32 | 29.54108 | -98.48338 | 824 ft | 153 kts | 130° |
| 2026-04-26 21:32 | 29.53473 | -98.47523 | 798 ft | 107 kts | 131° |
| 2026-04-26 21:32 | 29.53165 | -98.47127 | 795 ft | 26 kts | 131° |
| 2026-04-26 21:32 | 29.53063 | -98.47074 | 793 ft | 15 kts | 208° |
| 2026-04-26 21:33 | 29.53001 | -98.47091 | 793 ft | 7 kts | 153° |
| 2026-04-26 21:33 | 29.52968 | -98.47066 | 793 ft | 6 kts | 152° |
| 2026-04-26 21:33 | 29.52935 | -98.47021 | 792 ft | 10 kts | 127° |
| 2026-04-26 21:33 | 29.52883 | -98.46954 | 790 ft | 13 kts | 130° |
| 2026-04-26 21:34 | 29.52787 | -98.46836 | 788 ft | 20 kts | 160° |
| 2026-04-26 21:34 | 29.52676 | -98.46926 | 789 ft | 21 kts | 223° |
| 2026-04-26 21:34 | 29.52642 | -98.46964 | 788 ft | 1 kts | 234° |
| 2026-04-26 21:34 | 29.52614 | -98.46993 | 788 ft | 6 kts | 229° |
| 2026-04-26 21:35 | 29.52619 | -98.47013 | 788 ft | 4 kts | 308° |
| 2026-04-26 21:35 | 29.52635 | -98.47032 | 788 ft | 2 kts | 314° |
| 2026-04-26 21:35 | 29.52642 | -98.47041 | 789 ft | 1 kts | 313° |
| 2026-04-26 21:35 | 29.52643 | -98.47042 | 789 ft | 0 kts | 313° |